createdAt,value
2022-10-18T00:26:29.600Z,15
2022-10-18T00:46:30.210Z,15
2022-10-18T00:56:38.126Z,14.9
2022-10-18T01:46:33.492Z,14.8
2022-10-18T03:06:36.930Z,14.7
2022-10-18T03:46:38.892Z,14.8
2022-10-18T03:56:39.627Z,14.9
2022-10-18T04:06:39.756Z,14.8
2022-10-18T04:16:40.764Z,14.8
2022-10-18T04:26:41.520Z,14.8
2022-10-18T04:46:43.014Z,14.7
2022-10-18T04:56:43.431Z,14.8
2022-10-18T05:06:43.635Z,14.8
2022-10-18T05:16:43.990Z,14.9
2022-10-18T05:26:44.500Z,14.8
2022-10-18T05:36:44.532Z,14.8
2022-10-18T05:46:44.591Z,14.8
2022-10-18T05:56:51.706Z,14.9
2022-10-18T06:06:52.043Z,14.9
2022-10-18T06:16:52.331Z,14.9
2022-10-18T06:26:46.201Z,14.8
2022-10-18T06:36:56.324Z,14.9
2022-10-18T06:46:54.060Z,14.9
2022-10-18T06:56:47.893Z,14.9
2022-10-18T07:06:48.628Z,14.9
2022-10-18T07:16:48.787Z,14.9
2022-10-18T07:36:49.939Z,15
2022-10-18T07:46:57.667Z,15.1
2022-10-18T07:56:58.576Z,15.1
2022-10-18T08:06:59.496Z,15.2
2022-10-18T08:16:59.611Z,15.2
2022-10-18T08:26:53.025Z,15.1
2022-10-18T08:36:53.912Z,15.1
2022-10-18T08:46:54.232Z,15.1
2022-10-18T08:56:54.939Z,15.1
2022-10-18T09:06:55.552Z,15.1
2022-10-18T09:17:02.643Z,15.1
2022-10-18T09:26:56.129Z,15.1
2022-10-18T09:37:04.083Z,15.2
2022-10-18T09:46:58.056Z,15.2
2022-10-18T09:56:58.335Z,15.4
2022-10-18T10:07:06.001Z,16
2022-10-18T10:57:02.090Z,17
2022-10-18T11:07:02.425Z,17.4
2022-10-18T11:37:26.200Z,18.5
2022-10-18T11:57:05.520Z,18.6
2022-10-18T12:17:39.238Z,18.1
2022-10-18T12:57:08.543Z,18.6
2022-10-18T13:07:09.104Z,19.1
2022-10-18T13:17:09.474Z,19.4
2022-10-18T13:27:24.255Z,19.5
2022-10-18T13:37:10.432Z,20
2022-10-18T13:47:17.565Z,20.3
2022-10-18T13:57:11.350Z,20
2022-10-18T14:07:12.121Z,20
2022-10-18T15:07:15.676Z,18.3
2022-10-18T15:17:16.318Z,18.4
2022-10-18T15:37:18.122Z,17.8
2022-10-18T15:47:19.021Z,17.8
2022-10-18T15:57:19.253Z,17.6
2022-10-18T16:07:19.272Z,17.1
2022-10-18T16:17:19.991Z,16.6
2022-10-18T16:27:27.101Z,16.1
2022-10-18T16:47:21.086Z,15.1
2022-10-18T16:57:33.612Z,14.2
2022-10-18T17:07:33.835Z,13.8
2022-10-18T17:17:27.041Z,13.2
2022-10-18T17:27:27.615Z,12.8
2022-10-18T17:47:35.857Z,12.3
2022-10-18T17:57:29.899Z,12
2022-10-18T18:07:30.658Z,11.9
2022-10-18T18:17:34.277Z,11.6
2022-10-18T18:27:38.607Z,11.4
2022-10-18T18:37:32.556Z,11
2022-10-18T18:57:41.167Z,10.7
2022-10-18T19:07:41.516Z,10.5
2022-10-18T19:17:35.706Z,10.2
2022-10-18T19:27:36.286Z,10.2
2022-10-18T19:37:43.718Z,10
2022-10-18T20:07:44.794Z,9.6
2022-10-18T20:17:38.561Z,9.3
2022-10-18T20:27:39.253Z,9.2
2022-10-18T20:37:39.352Z,9.1
2022-10-18T20:47:46.512Z,9
2022-10-18T20:57:39.914Z,8.9
2022-10-18T21:17:40.842Z,8.7
2022-10-18T21:27:48.599Z,8.6
2022-10-18T21:37:41.946Z,8.5
2022-10-18T22:07:42.782Z,8.3
2022-10-18T22:17:43.349Z,8.3
2022-10-18T22:27:57.481Z,8.2
2022-10-18T22:37:43.626Z,8.1
2022-10-18T22:57:51.724Z,7.9
2022-10-18T23:07:44.935Z,7.8
2022-10-18T23:17:45.768Z,7.7
2022-10-18T23:27:46.126Z,7.6
2022-10-18T23:37:53.323Z,7.5
2022-10-18T23:47:46.790Z,7.4
